Time;durP1;ratioP1;P1;durP2;ratioP2;P2;SDS_P1;SDS_P2;PMS_P1;PMS_P2;Temp;Humidity;BMP_temperature;BMP_pressure;BME280_temperature;BME280_humidity;BME280_pressure;Samples;Min_cycle;Max_cycle;Signal;HPM_P1;HPM_P2
2024/03/09 06:01:45;;;;;;;33.57;15.50;;;;;;;;;;5555597;23;20550;-75
2024/03/09 06:04:11;;;;;;;38.27;16.47;;;;;;;;;;5035468;28;20468;-72
2024/03/09 06:06:40;;;;;;;38.03;15.63;;;;;;;;;;5036493;28;20406;-75
2024/03/09 06:09:06;;;;;;;39.83;15.17;;;;;;;;;;5036378;28;20405;-74
2024/03/09 06:11:32;;;;;;;39.90;14.83;;;;;;;;;;5036151;28;20440;-75
2024/03/09 06:13:58;;;;;;;33.30;15.50;;;;;;;;;;5035771;28;20415;-72
2024/03/09 06:16:24;;;;;;;32.77;15.33;;;;;;;;;;5034631;28;20496;-73
2024/03/09 06:18:50;;;;;;;36.00;17.13;;;;;;;;;;5034920;28;20453;-73
2024/03/09 06:21:17;;;;;;;34.73;15.13;;;;;;;;;;5034781;28;20429;-72
2024/03/09 06:23:44;;;;;;;34.87;15.27;;;;;;;;;;5034637;28;20456;-73
2024/03/09 06:26:10;;;;;;;29.83;14.83;;;;;;;;;;5034362;28;20401;-71
2024/03/09 06:28:38;;;;;;;40.63;15.50;;;;;;;;;;5034685;28;20486;-71
2024/03/09 06:31:05;;;;;;;40.07;18.23;;;;;;;;;;5040159;28;20998;-72
2024/03/09 06:33:34;;;;;;;30.10;14.73;;;;;;;;;;5034645;28;20413;-71
2024/03/09 06:36:04;;;;;;;31.03;14.30;;;;;;;;;;5034344;28;20861;-71
2024/03/09 06:38:35;;;;;;;30.83;15.33;;;;;;;;;;5035846;28;20720;-71
2024/03/09 06:41:01;;;;;;;36.57;15.50;;;;;;;;;;5051953;28;20460;-71
2024/03/09 06:43:27;;;;;;;29.47;15.47;;;;;;;;;;5040655;28;20475;-71
2024/03/09 06:45:56;;;;;;;34.13;14.60;;;;;;;;;;5032713;28;20413;-71
2024/03/09 06:48:23;;;;;;;31.90;15.47;;;;;;;;;;5034087;28;20923;-72
2024/03/09 06:50:49;;;;;;;28.87;14.33;;;;;;;;;;5034351;28;20429;-73
2024/03/09 06:53:15;;;;;;;29.23;14.70;;;;;;;;;;5034654;28;20500;-74
2024/03/09 06:55:42;;;;;;;37.60;16.67;;;;;;;;;;5032551;28;20425;-75
2024/03/09 06:58:08;;;;;;;24.13;13.30;;;;;;;;;;5033102;28;20418;-73
2024/03/09 07:00:34;;;;;;;28.00;14.83;;;;;;;;;;5033989;28;20795;-72
2024/03/09 07:03:00;;;;;;;29.03;15.70;;;;;;;;;;5034186;28;20405;-75
2024/03/09 07:05:36;;;;;;;29.20;16.53;;;;;;;;;;5033860;28;20457;-72
2024/03/09 07:08:03;;;;;;;39.57;15.60;;;;;;;;;;5037093;28;20429;-73
2024/03/09 07:10:30;;;;;;;30.90;15.80;;;;;;;;;;5033800;28;20445;-73
2024/03/09 07:12:57;;;;;;;31.23;15.10;;;;;;;;;;5033111;28;20444;-75
2024/03/09 07:15:25;;;;;;;28.07;15.43;;;;;;;;;;5033756;28;20413;-75
2024/03/09 07:17:53;;;;;;;30.63;14.80;;;;;;;;;;5034100;28;20421;-74
2024/03/09 07:20:23;;;;;;;28.30;14.67;;;;;;;;;;5033703;28;20774;-75
2024/03/09 07:22:49;;;;;;;32.17;16.10;;;;;;;;;;5033612;28;20417;-75
2024/03/09 07:25:16;;;;;;;30.03;14.67;;;;;;;;;;5033021;28;20963;-74
2024/03/09 07:27:43;;;;;;;26.27;14.80;;;;;;;;;;5032997;28;20413;-73
2024/03/09 07:30:11;;;;;;;26.17;14.33;;;;;;;;;;5032969;28;20924;-75
2024/03/09 07:32:39;;;;;;;30.87;15.90;;;;;;;;;;5033334;28;20810;-75
2024/03/09 07:35:09;;;;;;;25.03;14.73;;;;;;;;;;5033548;28;20808;-74
2024/03/09 07:37:35;;;;;;;28.93;16.20;;;;;;;;;;5033035;28;20424;-75
2024/03/09 07:40:01;;;;;;;35.80;16.53;;;;;;;;;;5033130;28;20814;-73
2024/03/09 07:42:27;;;;;;;32.33;16.53;;;;;;;;;;5031675;28;20445;-73
2024/03/09 07:44:53;;;;;;;35.80;17.23;;;;;;;;;;5032735;28;20468;-73
2024/03/09 07:47:19;;;;;;;30.90;16.40;;;;;;;;;;5032783;28;20406;-75
2024/03/09 07:49:44;;;;;;;32.33;17.83;;;;;;;;;;5033034;28;20416;-73
2024/03/09 07:52:10;;;;;;;33.50;16.33;;;;;;;;;;5032894;28;20463;-74
2024/03/09 07:54:36;;;;;;;35.63;17.50;;;;;;;;;;5032981;28;20497;-75
2024/03/09 07:57:04;;;;;;;34.73;16.60;;;;;;;;;;5032794;28;20619;-74
2024/03/09 07:59:30;;;;;;;34.93;18.27;;;;;;;;;;5032650;28;20804;-75
2024/03/09 08:01:56;;;;;;;28.70;15.60;;;;;;;;;;5032978;28;20955;-74
2024/03/09 08:04:21;;;;;;;29.30;16.23;;;;;;;;;;5031628;28;20464;-73
2024/03/09 08:06:47;;;;;;;35.30;16.40;;;;;;;;;;5031617;28;20405;-75
2024/03/09 08:09:14;;;;;;;33.47;17.13;;;;;;;;;;5033164;28;20417;-74
2024/03/09 08:11:41;;;;;;;34.30;16.83;;;;;;;;;;5032955;28;20421;-74
2024/03/09 08:14:07;;;;;;;34.20;16.70;;;;;;;;;;5032888;28;20440;-74
2024/03/09 08:16:33;;;;;;;30.67;15.43;;;;;;;;;;5034927;28;20409;-74
2024/03/09 08:18:59;;;;;;;34.57;16.93;;;;;;;;;;5036651;28;20784;-74
2024/03/09 08:21:25;;;;;;;30.67;15.63;;;;;;;;;;5037927;28;20895;-72
2024/03/09 08:23:52;;;;;;;30.90;16.70;;;;;;;;;;5037662;28;20483;-74
2024/03/09 08:26:18;;;;;;;27.00;15.33;;;;;;;;;;5034419;28;20496;-74
2024/03/09 08:28:44;;;;;;;31.70;17.70;;;;;;;;;;5032732;28;20495;-76
2024/03/09 08:31:10;;;;;;;29.03;15.17;;;;;;;;;;5031966;28;20910;-75
2024/03/09 08:33:36;;;;;;;29.40;15.53;;;;;;;;;;5032249;28;20440;-76
2024/03/09 08:36:05;;;;;;;27.17;15.13;;;;;;;;;;5032162;28;20780;-74
2024/03/09 08:38:32;;;;;;;31.33;15.90;;;;;;;;;;5032134;28;20440;-75
2024/03/09 08:40:58;;;;;;;27.80;14.83;;;;;;;;;;5032153;28;20429;-73
2024/03/09 08:43:25;;;;;;;27.00;15.30;;;;;;;;;;5032421;28;20501;-75
2024/03/09 08:45:53;;;;;;;28.63;15.37;;;;;;;;;;5033950;28;20401;-73
2024/03/09 08:48:19;;;;;;;32.03;15.90;;;;;;;;;;5037354;28;20405;-75
2024/03/09 08:50:45;;;;;;;23.23;13.50;;;;;;;;;;5032020;28;20437;-74
2024/03/09 08:53:11;;;;;;;28.53;14.97;;;;;;;;;;5033992;28;20413;-76
2024/03/09 08:55:37;;;;;;;30.33;15.60;;;;;;;;;;5032884;28;20466;-76
2024/03/09 08:58:03;;;;;;;23.97;14.73;;;;;;;;;;5032627;28;20416;-75
2024/03/09 09:00:29;;;;;;;34.70;16.80;;;;;;;;;;5032819;28;20514;-75
2024/03/09 09:02:56;;;;;;;29.33;15.63;;;;;;;;;;5032836;28;20500;-75
2024/03/09 09:05:22;;;;;;;28.00;15.27;;;;;;;;;;5031980;28;21039;-73
2024/03/09 09:07:48;;;;;;;29.23;15.60;;;;;;;;;;5035235;28;20405;-72
2024/03/09 09:10:15;;;;;;;27.50;15.33;;;;;;;;;;5037351;28;20413;-73
2024/03/09 09:12:41;;;;;;;27.20;15.60;;;;;;;;;;5034482;28;20409;-74
2024/03/09 09:15:08;;;;;;;31.90;16.23;;;;;;;;;;5032067;28;20931;-75
2024/03/09 09:17:34;;;;;;;31.53;15.90;;;;;;;;;;5032969;28;20476;-73
2024/03/09 09:20:01;;;;;;;32.87;17.60;;;;;;;;;;5032940;28;20958;-72
2024/03/09 09:22:27;;;;;;;30.20;16.33;;;;;;;;;;5031635;28;20429;-73
2024/03/09 09:24:53;;;;;;;30.70;15.73;;;;;;;;;;5030240;28;20457;-74
2024/03/09 09:27:19;;;;;;;24.17;12.93;;;;;;;;;;5031550;28;20467;-75
2024/03/09 09:29:45;;;;;;;27.97;15.43;;;;;;;;;;5031890;28;20782;-76
2024/03/09 09:32:11;;;;;;;28.47;15.23;;;;;;;;;;5032241;28;20947;-75
2024/03/09 09:34:37;;;;;;;30.27;15.43;;;;;;;;;;5031811;28;20599;-73
2024/03/09 09:37:03;;;;;;;26.33;14.67;;;;;;;;;;5033757;28;20409;-76
2024/03/09 09:39:32;;;;;;;29.57;14.87;;;;;;;;;;5035736;28;20834;-76
2024/03/09 09:41:59;;;;;;;27.80;14.17;;;;;;;;;;5035928;28;20428;-74
2024/03/09 09:44:28;;;;;;;25.87;15.17;;;;;;;;;;5036344;28;20492;-77
2024/03/09 09:46:57;;;;;;;26.57;14.43;;;;;;;;;;5037014;28;20500;-74
2024/03/09 09:49:24;;;;;;;31.60;15.27;;;;;;;;;;5039261;28;20425;-75
2024/03/09 09:51:56;;;;;;;25.53;14.30;;;;;;;;;;5039757;28;20479;-76
2024/03/09 09:54:26;;;;;;;27.97;15.17;;;;;;;;;;5036710;28;20402;-75
2024/03/09 09:56:54;;;;;;;30.30;15.53;;;;;;;;;;5034088;28;20421;-75
2024/03/09 09:59:20;;;;;;;27.63;14.47;;;;;;;;;;5034739;28;20421;-75
2024/03/09 10:01:46;;;;;;;29.50;15.67;;;;;;;;;;5038092;28;20467;-76
2024/03/09 10:04:12;;;;;;;29.30;16.03;;;;;;;;;;5037095;28;20460;-76
2024/03/09 10:06:38;;;;;;;27.30;14.83;;;;;;;;;;5047992;28;20826;-75
2024/03/09 10:09:04;;;;;;;29.43;16.00;;;;;;;;;;5049254;28;20418;-77
2024/03/09 10:11:32;;;;;;;26.57;14.70;;;;;;;;;;5049532;28;20433;-75
2024/03/09 10:13:59;;;;;;;28.53;15.93;;;;;;;;;;5042578;28;20746;-74
2024/03/09 10:16:27;;;;;;;29.10;15.53;;;;;;;;;;5042700;28;20409;-74
2024/03/09 10:18:53;;;;;;;25.90;13.20;;;;;;;;;;5042891;28;20435;-74
2024/03/09 10:21:26;;;;;;;30.63;15.37;;;;;;;;;;5037232;28;20490;-74
2024/03/09 10:24:05;;;;;;;30.47;15.30;;;;;;;;;;5035281;28;20486;-76
2024/03/09 10:26:32;;;;;;;27.50;14.97;;;;;;;;;;5033928;28;20462;-75
2024/03/09 10:28:58;;;;;;;27.47;15.20;;;;;;;;;;5035247;28;20409;-74
2024/03/09 10:31:25;;;;;;;27.37;15.80;;;;;;;;;;5034798;28;20790;-76
2024/03/09 10:33:54;;;;;;;27.93;15.73;;;;;;;;;;5034739;28;20416;-76
2024/03/09 10:36:25;;;;;;;29.87;14.43;;;;;;;;;;5034218;28;20463;-77
2024/03/09 10:38:51;;;;;;;28.67;15.63;;;;;;;;;;5033312;28;20552;-76
2024/03/09 10:41:22;;;;;;;27.27;15.23;;;;;;;;;;5032938;28;20469;-73
2024/03/09 10:43:49;;;;;;;35.00;16.50;;;;;;;;;;5031237;28;23331;-76
2024/03/09 10:46:20;;;;;;;26.77;15.07;;;;;;;;;;5029790;28;20508;-74
2024/03/09 10:48:51;;;;;;;28.70;14.80;;;;;;;;;;5033871;28;20413;-76
2024/03/09 10:51:17;;;;;;;27.80;15.07;;;;;;;;;;5032476;28;20494;-75
2024/03/09 10:54:06;;;;;;;26.83;15.70;;;;;;;;;;5034779;28;20429;-74
2024/03/09 10:56:32;;;;;;;22.70;13.77;;;;;;;;;;5038649;28;20441;-75
2024/03/09 10:59:00;;;;;;;30.57;14.20;;;;;;;;;;5039509;28;20421;-73
2024/03/09 11:01:26;;;;;;;28.63;15.40;;;;;;;;;;5038183;28;21009;-76
2024/03/09 11:03:52;;;;;;;23.30;12.50;;;;;;;;;;5039312;28;20461;-74
2024/03/09 11:06:19;;;;;;;20.67;11.83;;;;;;;;;;5038906;28;20923;-75
2024/03/09 11:08:46;;;;;;;21.27;11.83;;;;;;;;;;5036077;28;20454;-75
2024/03/09 11:11:13;;;;;;;21.43;11.90;;;;;;;;;;5036172;28;20515;-75
2024/03/09 11:13:39;;;;;;;17.17;10.50;;;;;;;;;;5035410;28;20426;-74
2024/03/09 11:16:09;;;;;;;19.27;10.60;;;;;;;;;;5037671;28;20503;-75
2024/03/09 11:18:39;;;;;;;20.07;10.20;;;;;;;;;;5037224;28;20409;-75
2024/03/09 11:21:07;;;;;;;17.50;9.40;;;;;;;;;;5036545;28;20439;-73
2024/03/09 11:23:34;;;;;;;23.73;10.47;;;;;;;;;;5034640;28;20417;-76
2024/03/09 11:26:00;;;;;;;16.50;9.90;;;;;;;;;;5035364;28;20418;-75
2024/03/09 11:28:29;;;;;;;25.57;10.17;;;;;;;;;;5034266;28;20417;-76
2024/03/09 11:31:11;;;;;;;15.53;9.20;;;;;;;;;;5035652;28;20931;-74
2024/03/09 11:33:48;;;;;;;12.10;7.87;;;;;;;;;;5035949;28;20452;-74
2024/03/09 11:36:33;;;;;;;16.77;8.50;;;;;;;;;;5039661;28;20404;-73
2024/03/09 11:39:02;;;;;;;19.47;9.70;;;;;;;;;;5045491;28;20477;-75
2024/03/09 11:41:28;;;;;;;21.27;10.60;;;;;;;;;;5036143;28;20440;-76
2024/03/09 11:43:55;;;;;;;22.50;10.10;;;;;;;;;;5036058;28;20460;-75
2024/03/09 11:46:22;;;;;;;17.50;9.30;;;;;;;;;;5038045;28;20405;-75
2024/03/09 11:48:48;;;;;;;15.93;8.40;;;;;;;;;;5037287;28;20424;-75
2024/03/09 11:51:14;;;;;;;16.13;7.90;;;;;;;;;;5037088;28;20841;-75
2024/03/09 11:53:40;;;;;;;16.50;8.60;;;;;;;;;;5045456;28;20421;-74
2024/03/09 11:56:06;;;;;;;10.90;6.40;;;;;;;;;;5048167;28;20443;-74
2024/03/09 11:58:32;;;;;;;16.90;8.20;;;;;;;;;;5047401;28;20432;-73
2024/03/09 12:00:58;;;;;;;12.87;7.30;;;;;;;;;;5046523;28;20455;-73
2024/03/09 12:03:26;;;;;;;13.00;7.47;;;;;;;;;;5046301;28;20488;-74
2024/03/09 12:05:55;;;;;;;12.30;7.10;;;;;;;;;;5038064;28;20409;-74
2024/03/09 12:08:22;;;;;;;14.70;8.43;;;;;;;;;;5035164;28;20478;-73
2024/03/09 12:10:48;;;;;;;14.50;8.23;;;;;;;;;;5040828;28;20456;-75
2024/03/09 12:13:14;;;;;;;13.53;7.70;;;;;;;;;;5063202;22;20405;-73
2024/03/09 12:15:41;;;;;;;12.43;7.20;;;;;;;;;;5012836;28;20497;-73
2024/03/09 12:18:08;;;;;;;13.30;6.93;;;;;;;;;;5012618;28;20414;-74
2024/03/09 12:20:35;;;;;;;11.77;6.57;;;;;;;;;;5012690;28;20489;-74
2024/03/09 12:23:01;;;;;;;12.00;6.67;;;;;;;;;;5012430;28;20416;-73
2024/03/09 12:25:27;;;;;;;12.23;6.40;;;;;;;;;;5011785;28;20465;-73
2024/03/09 12:27:53;;;;;;;10.93;5.90;;;;;;;;;;5011861;28;20444;-73
2024/03/09 12:30:23;;;;;;;15.27;7.80;;;;;;;;;;5012525;28;20406;-74
2024/03/09 12:32:51;;;;;;;11.83;6.00;;;;;;;;;;5012383;28;20414;-74
2024/03/09 12:35:18;;;;;;;10.23;6.67;;;;;;;;;;5011061;28;20442;-73
2024/03/09 12:37:46;;;;;;;11.97;6.50;;;;;;;;;;5012291;28;20826;-73
2024/03/09 12:40:19;;;;;;;8.80;5.07;;;;;;;;;;5012219;28;20449;-73
2024/03/09 12:42:48;;;;;;;11.37;6.40;;;;;;;;;;5012488;28;20494;-73
2024/03/09 12:45:25;;;;;;;9.70;5.70;;;;;;;;;;5011877;28;20465;-72
2024/03/09 12:47:54;;;;;;;11.07;4.30;;;;;;;;;;5012080;28;20464;-75
2024/03/09 12:50:20;;;;;;;13.03;4.20;;;;;;;;;;5013045;28;20414;-74
2024/03/09 12:52:50;;;;;;;7.90;4.57;;;;;;;;;;5012101;28;20406;-74
2024/03/09 12:55:16;;;;;;;10.63;4.93;;;;;;;;;;5012136;28;20437;-75
2024/03/09 12:57:43;;;;;;;7.73;4.30;;;;;;;;;;5012225;28;20414;-74
2024/03/09 13:00:19;;;;;;;9.00;5.47;;;;;;;;;;5012096;28;20438;-74
2024/03/09 13:02:48;;;;;;;11.80;5.60;;;;;;;;;;5012317;28;20414;-74
2024/03/09 13:05:15;;;;;;;9.27;5.50;;;;;;;;;;5011725;28;20462;-74
2024/03/09 13:07:41;;;;;;;11.07;5.00;;;;;;;;;;5011989;28;20513;-74
2024/03/09 13:10:07;;;;;;;12.80;6.30;;;;;;;;;;5012364;28;20442;-74
2024/03/09 13:12:33;;;;;;;9.40;5.30;;;;;;;;;;5014897;28;20472;-74
2024/03/09 13:14:59;;;;;;;9.40;5.10;;;;;;;;;;5015389;28;20449;-74
2024/03/09 13:17:25;;;;;;;10.43;5.47;;;;;;;;;;5015237;28;20512;-74
2024/03/09 13:19:51;;;;;;;8.30;4.87;;;;;;;;;;5015545;28;20432;-73
2024/03/09 13:22:17;;;;;;;11.60;6.20;;;;;;;;;;5015719;28;20460;-74
2024/03/09 13:24:44;;;;;;;8.13;4.83;;;;;;;;;;5014880;28;20483;-74
2024/03/09 13:27:12;;;;;;;9.60;5.30;;;;;;;;;;5015712;28;20753;-74
2024/03/09 13:29:38;;;;;;;10.33;5.50;;;;;;;;;;5015706;28;20837;-74
2024/03/09 13:32:15;;;;;;;8.53;5.10;;;;;;;;;;5015642;28;20440;-75
2024/03/09 13:34:41;;;;;;;10.27;5.83;;;;;;;;;;5015292;28;20775;-74
2024/03/09 13:37:07;;;;;;;9.67;5.60;;;;;;;;;;5015200;28;20425;-73
2024/03/09 13:39:36;;;;;;;11.23;5.60;;;;;;;;;;5015450;28;20499;-73
2024/03/09 13:42:08;;;;;;;9.87;5.77;;;;;;;;;;5015721;28;20897;-74
2024/03/09 13:44:34;;;;;;;9.80;5.77;;;;;;;;;;5013682;28;20556;-74
2024/03/09 13:47:00;;;;;;;10.03;5.13;;;;;;;;;;5015579;28;20446;-74
2024/03/09 13:49:28;;;;;;;10.43;5.93;;;;;;;;;;5015246;28;20409;-73
2024/03/09 13:51:58;;;;;;;10.90;5.30;;;;;;;;;;5014681;28;20409;-74
2024/03/09 13:54:24;;;;;;;7.30;5.03;;;;;;;;;;5014942;28;20824;-72
2024/03/09 13:56:50;;;;;;;9.13;5.43;;;;;;;;;;5014972;28;20817;-74
2024/03/09 13:59:19;;;;;;;9.47;5.23;;;;;;;;;;5015123;28;20406;-74
2024/03/09 14:01:45;;;;;;;10.20;5.63;;;;;;;;;;5015110;28;20410;-73
2024/03/09 14:04:12;;;;;;;8.67;5.00;;;;;;;;;;5014858;28;20465;-74
2024/03/09 14:06:40;;;;;;;8.53;5.00;;;;;;;;;;5014667;28;20916;-74
2024/03/09 14:09:06;;;;;;;9.93;5.30;;;;;;;;;;5014762;28;20490;-74
2024/03/09 14:11:32;;;;;;;12.30;5.57;;;;;;;;;;5014301;28;20420;-75
2024/03/09 14:14:00;;;;;;;8.40;4.93;;;;;;;;;;5014289;28;20445;-74
2024/03/09 14:16:28;;;;;;;7.97;4.70;;;;;;;;;;5014359;28;20425;-74
2024/03/09 14:18:54;;;;;;;8.23;5.57;;;;;;;;;;5014806;28;20509;-74
2024/03/09 14:21:26;;;;;;;8.17;4.47;;;;;;;;;;5014603;28;20445;-74
2024/03/09 14:23:53;;;;;;;9.10;5.00;;;;;;;;;;5014268;28;20461;-74
2024/03/09 14:26:24;;;;;;;11.13;6.37;;;;;;;;;;5014118;28;20950;-74
2024/03/09 14:28:50;;;;;;;9.90;5.17;;;;;;;;;;5014784;28;20897;-73
2024/03/09 14:31:16;;;;;;;12.17;5.70;;;;;;;;;;5014486;28;20406;-73
2024/03/09 14:33:43;;;;;;;10.00;4.90;;;;;;;;;;5014477;28;20525;-74
2024/03/09 14:36:12;;;;;;;8.77;5.00;;;;;;;;;;5014240;28;20406;-74
2024/03/09 14:38:38;;;;;;;14.00;5.60;;;;;;;;;;5014154;28;20502;-74
2024/03/09 14:41:12;;;;;;;7.83;4.90;;;;;;;;;;5014384;28;20869;-74
2024/03/09 14:43:41;;;;;;;10.20;5.27;;;;;;;;;;5012895;28;20804;-75
2024/03/09 14:46:10;;;;;;;13.63;5.80;;;;;;;;;;5013838;28;20418;-75
2024/03/09 14:48:39;;;;;;;11.83;5.13;;;;;;;;;;5014863;28;20421;-74
2024/03/09 14:51:10;;;;;;;16.10;5.70;;;;;;;;;;5014183;28;20406;-74
2024/03/09 14:53:41;;;;;;;11.97;5.90;;;;;;;;;;5013978;28;20431;-74
2024/03/09 14:56:07;;;;;;;10.77;5.70;;;;;;;;;;5012033;28;20425;-74
2024/03/09 14:58:45;;;;;;;11.40;5.83;;;;;;;;;;5013720;28;20421;-74
2024/03/09 15:01:17;;;;;;;8.37;5.37;;;;;;;;;;5013362;28;20417;-73
2024/03/09 15:03:44;;;;;;;13.27;5.23;;;;;;;;;;5013085;28;20434;-74
2024/03/09 15:06:11;;;;;;;7.33;4.63;;;;;;;;;;5013245;28;20505;-74
2024/03/09 15:08:39;;;;;;;11.20;4.70;;;;;;;;;;5013219;28;20901;-74
2024/03/09 15:11:14;;;;;;;7.67;4.43;;;;;;;;;;5013035;28;20513;-72
2024/03/09 15:13:40;;;;;;;11.10;5.03;;;;;;;;;;5013350;28;20507;-74
2024/03/09 15:16:08;;;;;;;9.83;5.20;;;;;;;;;;5012930;28;20854;-73
2024/03/09 15:18:33;;;;;;;10.57;4.80;;;;;;;;;;5012886;28;20410;-74
2024/03/09 15:21:00;;;;;;;9.03;4.50;;;;;;;;;;5013261;28;20412;-74
2024/03/09 15:23:26;;;;;;;7.93;5.23;;;;;;;;;;5013084;28;20772;-74
2024/03/09 15:25:52;;;;;;;8.67;5.20;;;;;;;;;;5012826;28;20501;-74
2024/03/09 15:28:18;;;;;;;9.23;5.20;;;;;;;;;;5013225;28;20490;-73
2024/03/09 15:30:52;;;;;;;9.30;5.70;;;;;;;;;;5013241;28;20406;-74
2024/03/09 15:33:25;;;;;;;9.77;5.10;;;;;;;;;;5013155;28;20417;-74
2024/03/09 15:35:54;;;;;;;7.40;4.47;;;;;;;;;;5012151;28;20898;-74
2024/03/09 15:38:21;;;;;;;8.40;4.80;;;;;;;;;;5014271;28;20418;-73
2024/03/09 15:40:47;;;;;;;10.87;4.97;;;;;;;;;;5022234;28;20467;-74
2024/03/09 15:43:13;;;;;;;8.40;5.27;;;;;;;;;;5014123;28;20402;-74
2024/03/09 15:45:40;;;;;;;9.00;5.00;;;;;;;;;;5013973;28;20975;-72
2024/03/09 15:48:06;;;;;;;10.10;3.93;;;;;;;;;;5013914;28;20493;-74
2024/03/09 15:50:39;;;;;;;8.97;4.70;;;;;;;;;;5013870;28;20494;-73
2024/03/09 15:53:06;;;;;;;6.47;4.20;;;;;;;;;;5014240;28;20402;-73
2024/03/09 15:55:36;;;;;;;10.00;4.20;;;;;;;;;;5016230;28;20446;-72
2024/03/09 15:58:07;;;;;;;8.90;4.47;;;;;;;;;;5017554;28;20433;-74
2024/03/09 16:00:33;;;;;;;8.50;4.47;;;;;;;;;;5014209;28;20399;-74
2024/03/09 16:03:03;;;;;;;10.97;5.70;;;;;;;;;;5014065;28;20415;-73
2024/03/09 16:05:30;;;;;;;9.03;4.80;;;;;;;;;;5013457;28;20461;-73
2024/03/09 16:07:57;;;;;;;9.47;6.10;;;;;;;;;;5013255;28;20418;-73
2024/03/09 16:10:23;;;;;;;14.77;6.20;;;;;;;;;;5013371;28;20762;-74
2024/03/09 16:12:57;;;;;;;9.47;5.90;;;;;;;;;;5013666;28;20410;-73
2024/03/09 16:15:27;;;;;;;10.97;6.30;;;;;;;;;;5012758;28;20607;-73
2024/03/09 16:17:53;;;;;;;13.93;7.47;;;;;;;;;;5013340;28;20783;-73
2024/03/09 16:20:31;;;;;;;10.33;6.23;;;;;;;;;;5011783;28;20418;-74
2024/03/09 16:23:01;;;;;;;14.47;6.60;;;;;;;;;;5012760;28;20417;-74
2024/03/09 16:25:29;;;;;;;11.47;6.30;;;;;;;;;;5012352;28;20453;-75
2024/03/09 16:27:56;;;;;;;10.13;6.40;;;;;;;;;;5012322;28;20783;-74
2024/03/09 16:30:29;;;;;;;12.90;6.73;;;;;;;;;;5010815;28;20953;-74
2024/03/09 16:33:04;;;;;;;12.67;6.80;;;;;;;;;;5012881;28;20413;-74
2024/03/09 16:35:33;;;;;;;18.33;6.47;;;;;;;;;;5012753;28;20476;-73
2024/03/09 16:38:02;;;;;;;13.03;6.73;;;;;;;;;;5012775;28;20494;-73
2024/03/09 16:40:31;;;;;;;9.50;6.20;;;;;;;;;;5012647;28;20421;-73
2024/03/09 16:43:01;;;;;;;14.50;7.17;;;;;;;;;;5012628;28;20414;-75
2024/03/09 16:45:27;;;;;;;14.00;6.60;;;;;;;;;;5011880;28;20470;-73
2024/03/09 16:47:56;;;;;;;13.83;6.77;;;;;;;;;;5012414;28;20410;-74
2024/03/09 16:50:22;;;;;;;12.70;6.90;;;;;;;;;;5011604;28;20937;-73
2024/03/09 16:52:54;;;;;;;14.37;8.87;;;;;;;;;;5012895;28;20501;-74
2024/03/09 16:55:20;;;;;;;12.50;7.43;;;;;;;;;;5012182;28;20453;-74
2024/03/09 16:57:46;;;;;;;18.17;8.77;;;;;;;;;;5012878;28;20777;-73
2024/03/09 17:00:20;;;;;;;10.57;7.20;;;;;;;;;;5012443;28;20410;-73
2024/03/09 17:02:52;;;;;;;15.40;8.17;;;;;;;;;;5012480;28;20410;-74
2024/03/09 17:05:19;;;;;;;14.70;7.60;;;;;;;;;;5010464;28;20472;-73
2024/03/09 17:07:48;;;;;;;16.33;9.23;;;;;;;;;;5012263;28;20556;-73
2024/03/09 17:10:15;;;;;;;19.77;9.23;;;;;;;;;;5012204;28;20410;-73
2024/03/09 17:12:42;;;;;;;15.57;9.03;;;;;;;;;;5012035;28;20482;-74
2024/03/09 17:15:08;;;;;;;14.73;8.67;;;;;;;;;;5011589;28;20449;-74
2024/03/09 17:17:35;;;;;;;14.20;8.10;;;;;;;;;;5012283;28;20537;-73
2024/03/09 17:20:09;;;;;;;16.00;8.57;;;;;;;;;;5011738;28;20898;-74
2024/03/09 17:22:43;;;;;;;19.90;9.10;;;;;;;;;;5011727;28;20464;-73
2024/03/09 17:25:10;;;;;;;15.50;8.20;;;;;;;;;;5011208;28;20551;-73
2024/03/09 17:27:36;;;;;;;18.53;8.20;;;;;;;;;;5011581;28;20406;-73
2024/03/09 17:30:02;;;;;;;19.47;8.33;;;;;;;;;;5011564;28;20931;-73
2024/03/09 17:32:28;;;;;;;16.73;7.30;;;;;;;;;;5011906;28;20414;-72
2024/03/09 17:34:53;;;;;;;16.03;7.97;;;;;;;;;;5011389;28;20453;-73
2024/03/09 17:37:20;;;;;;;19.57;8.77;;;;;;;;;;5011640;28;20457;-74
2024/03/09 17:39:46;;;;;;;21.93;9.10;;;;;;;;;;5012032;28;20781;-73
2024/03/09 17:42:13;;;;;;;20.40;11.53;;;;;;;;;;5011866;28;20484;-74
2024/03/09 17:44:40;;;;;;;17.47;10.00;;;;;;;;;;5011306;28;20461;-75
2024/03/09 17:47:09;;;;;;;25.40;10.70;;;;;;;;;;5012061;28;20406;-73
2024/03/09 17:49:35;;;;;;;19.87;10.47;;;;;;;;;;5012248;28;20734;-74
2024/03/09 17:52:03;;;;;;;22.70;10.53;;;;;;;;;;5011967;28;20421;-73
2024/03/09 17:54:30;;;;;;;16.10;9.33;;;;;;;;;;5010022;28;20531;-74
2024/03/09 17:56:56;;;;;;;21.33;12.53;;;;;;;;;;5012004;28;20422;-73
2024/03/09 17:59:23;;;;;;;16.90;10.10;;;;;;;;;;5015745;28;20414;-75
2024/03/09 18:01:49;;;;;;;17.80;10.33;;;;;;;;;;5014901;28;20434;-73
2024/03/09 18:04:15;;;;;;;18.33;9.67;;;;;;;;;;5014588;28;20528;-72
2024/03/09 18:06:41;;;;;;;18.60;10.90;;;;;;;;;;5014877;28;20504;-74
2024/03/09 18:09:07;;;;;;;30.63;11.90;;;;;;;;;;5014944;28;20418;-73
2024/03/09 18:11:34;;;;;;;18.67;10.80;;;;;;;;;;5014746;28;20406;-74
2024/03/09 18:14:00;;;;;;;19.70;11.50;;;;;;;;;;5014585;28;20449;-75
2024/03/09 18:16:27;;;;;;;18.90;10.30;;;;;;;;;;5014033;28;20410;-75
2024/03/09 18:18:53;;;;;;;24.90;11.23;;;;;;;;;;5014568;28;20418;-75
2024/03/09 18:21:21;;;;;;;22.63;12.23;;;;;;;;;;5014511;28;20441;-74
2024/03/09 18:23:47;;;;;;;19.60;11.00;;;;;;;;;;5014060;28;20504;-75
2024/03/09 18:26:14;;;;;;;22.27;11.70;;;;;;;;;;5013991;28;20890;-75
2024/03/09 18:28:40;;;;;;;24.70;10.67;;;;;;;;;;5014388;28;20406;-75
2024/03/09 18:31:07;;;;;;;20.97;11.43;;;;;;;;;;5014156;28;20410;-75
2024/03/09 18:33:37;;;;;;;19.67;10.07;;;;;;;;;;5012790;28;20444;-75
2024/03/09 18:36:05;;;;;;;21.07;9.90;;;;;;;;;;5013934;28;20417;-75
2024/03/09 18:38:31;;;;;;;19.10;10.07;;;;;;;;;;5013976;28;20414;-75
2024/03/09 18:40:57;;;;;;;18.43;10.30;;;;;;;;;;5013945;28;20418;-75
2024/03/09 18:43:23;;;;;;;18.53;11.20;;;;;;;;;;5013753;28;20871;-73
2024/03/09 18:45:49;;;;;;;22.13;11.67;;;;;;;;;;5013236;28;20471;-74
2024/03/09 18:48:15;;;;;;;23.00;10.37;;;;;;;;;;5013883;28;20488;-75
2024/03/09 18:50:41;;;;;;;21.00;10.10;;;;;;;;;;5013800;28;20402;-75
2024/03/09 18:53:07;;;;;;;21.43;12.60;;;;;;;;;;5013718;28;20433;-75
2024/03/09 18:55:34;;;;;;;24.70;11.17;;;;;;;;;;5013603;28;20832;-75
2024/03/09 18:58:04;;;;;;;19.77;10.70;;;;;;;;;;5013609;28;20472;-75
2024/03/09 19:00:31;;;;;;;20.87;10.60;;;;;;;;;;5013750;28;20414;-74
2024/03/09 19:02:57;;;;;;;22.83;12.00;;;;;;;;;;5013725;28;20489;-75
2024/03/09 19:05:23;;;;;;;24.17;10.50;;;;;;;;;;5013410;28;20501;-74
2024/03/09 19:07:59;;;;;;;18.93;10.87;;;;;;;;;;5012379;28;20984;-75
2024/03/09 19:10:26;;;;;;;25.40;9.93;;;;;;;;;;5013017;28;20406;-75
2024/03/09 19:12:52;;;;;;;26.90;11.30;;;;;;;;;;5013725;28;20418;-74
2024/03/09 19:15:19;;;;;;;19.33;9.80;;;;;;;;;;5013365;28;20486;-75
2024/03/09 19:17:47;;;;;;;22.20;11.70;;;;;;;;;;5013714;28;20410;-74
2024/03/09 19:20:16;;;;;;;18.50;10.50;;;;;;;;;;5014947;28;20501;-75
2024/03/09 19:22:42;;;;;;;20.97;10.80;;;;;;;;;;5021383;28;20417;-74
2024/03/09 19:25:12;;;;;;;19.87;10.93;;;;;;;;;;5014321;28;20544;-74
2024/03/09 19:27:40;;;;;;;18.10;10.27;;;;;;;;;;5013185;28;20409;-75
2024/03/09 19:30:08;;;;;;;25.67;11.73;;;;;;;;;;5013164;28;20468;-75
2024/03/09 19:32:34;;;;;;;19.27;11.17;;;;;;;;;;5013437;28;20414;-75
2024/03/09 19:35:00;;;;;;;23.00;11.80;;;;;;;;;;5012599;28;20487;-74
2024/03/09 19:37:26;;;;;;;24.30;11.87;;;;;;;;;;5013169;28;20407;-75
2024/03/09 19:39:52;;;;;;;21.90;11.73;;;;;;;;;;5013128;28;20420;-75
2024/03/09 19:42:21;;;;;;;24.93;11.40;;;;;;;;;;5012986;28;20456;-75
2024/03/09 19:44:47;;;;;;;23.80;12.23;;;;;;;;;;5013011;28;20523;-75
2024/03/09 19:47:14;;;;;;;27.13;12.63;;;;;;;;;;5011840;28;20429;-74
2024/03/09 19:49:40;;;;;;;25.70;11.37;;;;;;;;;;5013023;28;20418;-74
2024/03/09 19:52:06;;;;;;;24.53;13.47;;;;;;;;;;5013020;28;20429;-75
2024/03/09 19:54:32;;;;;;;25.47;12.63;;;;;;;;;;5013156;28;20937;-75
2024/03/09 19:56:58;;;;;;;23.37;10.90;;;;;;;;;;5012774;28;20410;-75
2024/03/09 19:59:24;;;;;;;16.20;7.87;;;;;;;;;;5012830;28;20501;-75
2024/03/09 20:01:52;;;;;;;17.97;10.17;;;;;;;;;;5012814;28;20422;-75
2024/03/09 20:04:18;;;;;;;21.50;10.37;;;;;;;;;;5012444;28;20472;-75
2024/03/09 20:06:44;;;;;;;17.33;9.63;;;;;;;;;;5012801;28;20493;-75
2024/03/09 20:09:15;;;;;;;17.50;9.20;;;;;;;;;;5012725;28;20489;-75
2024/03/09 20:11:41;;;;;;;13.93;8.03;;;;;;;;;;5012590;28;20835;-75
2024/03/09 20:14:10;;;;;;;17.60;7.87;;;;;;;;;;5012333;28;20453;-75
2024/03/09 20:16:36;;;;;;;24.33;9.83;;;;;;;;;;5012583;28;20410;-75
2024/03/09 20:19:02;;;;;;;18.40;10.00;;;;;;;;;;5012468;28;20783;-75
2024/03/09 20:21:30;;;;;;;19.77;9.70;;;;;;;;;;5014499;28;20418;-74
2024/03/09 20:23:56;;;;;;;20.87;9.90;;;;;;;;;;5024228;28;20552;-75
2024/03/09 20:26:25;;;;;;;15.40;8.80;;;;;;;;;;5012525;28;20418;-74
2024/03/09 20:28:50;;;;;;;15.37;9.07;;;;;;;;;;5012402;28;20936;-75